sensor_id;sensor_type;location;lat;lon;timestamp;P1;durP1;ratioP1;P2;durP2;ratioP2
71959;SDS011;59832;51.146;14.024;2024-01-06T00:01:03;25.40;;;13.73;;
71959;SDS011;59832;51.146;14.024;2024-01-06T00:03:29;25.52;;;13.25;;
71959;SDS011;59832;51.146;14.024;2024-01-06T00:05:56;24.52;;;13.88;;
71959;SDS011;59832;51.146;14.024;2024-01-06T00:08:22;23.35;;;14.00;;
71959;SDS011;59832;51.146;14.024;2024-01-06T00:10:49;21.52;;;13.02;;
71959;SDS011;59832;51.146;14.024;2024-01-06T00:13:15;23.52;;;13.10;;
71959;SDS011;59832;51.146;14.024;2024-01-06T00:15:42;24.27;;;13.45;;
71959;SDS011;59832;51.146;14.024;2024-01-06T00:18:08;24.45;;;13.57;;
71959;SDS011;59832;51.146;14.024;2024-01-06T00:20:35;20.90;;;13.33;;
71959;SDS011;59832;51.146;14.024;2024-01-06T00:23:01;29.65;;;14.25;;
71959;SDS011;59832;51.146;14.024;2024-01-06T00:25:28;24.73;;;13.32;;
71959;SDS011;59832;51.146;14.024;2024-01-06T00:27:54;23.85;;;13.45;;
71959;SDS011;59832;51.146;14.024;2024-01-06T00:30:21;29.17;;;13.97;;
71959;SDS011;59832;51.146;14.024;2024-01-06T00:32:47;26.83;;;14.02;;
71959;SDS011;59832;51.146;14.024;2024-01-06T00:35:14;23.23;;;13.30;;
71959;SDS011;59832;51.146;14.024;2024-01-06T00:37:40;25.80;;;14.10;;
71959;SDS011;59832;51.146;14.024;2024-01-06T00:40:07;22.55;;;13.00;;
71959;SDS011;59832;51.146;14.024;2024-01-06T00:42:33;20.98;;;13.45;;
71959;SDS011;59832;51.146;14.024;2024-01-06T00:45:00;26.45;;;13.30;;
71959;SDS011;59832;51.146;14.024;2024-01-06T00:47:27;24.25;;;13.07;;
71959;SDS011;59832;51.146;14.024;2024-01-06T00:49:53;24.50;;;13.95;;
71959;SDS011;59832;51.146;14.024;2024-01-06T00:52:20;29.43;;;14.63;;
71959;SDS011;59832;51.146;14.024;2024-01-06T00:54:46;22.95;;;13.40;;
71959;SDS011;59832;51.146;14.024;2024-01-06T00:57:13;21.80;;;13.82;;
71959;SDS011;59832;51.146;14.024;2024-01-06T00:59:40;25.95;;;14.13;;
71959;SDS011;59832;51.146;14.024;2024-01-06T01:02:06;27.15;;;13.75;;
71959;SDS011;59832;51.146;14.024;2024-01-06T01:04:33;22.80;;;12.80;;
71959;SDS011;59832;51.146;14.024;2024-01-06T01:07:00;29.25;;;14.20;;
71959;SDS011;59832;51.146;14.024;2024-01-06T01:09:26;25.25;;;13.43;;
71959;SDS011;59832;51.146;14.024;2024-01-06T01:11:52;24.20;;;12.95;;
71959;SDS011;59832;51.146;14.024;2024-01-06T01:14:19;21.35;;;13.32;;
71959;SDS011;59832;51.146;14.024;2024-01-06T01:16:45;27.92;;;13.45;;
71959;SDS011;59832;51.146;14.024;2024-01-06T01:19:12;22.58;;;12.75;;
71959;SDS011;59832;51.146;14.024;2024-01-06T01:21:38;20.73;;;13.07;;
71959;SDS011;59832;51.146;14.024;2024-01-06T01:24:05;20.52;;;13.20;;
71959;SDS011;59832;51.146;14.024;2024-01-06T01:26:31;21.33;;;13.40;;
71959;SDS011;59832;51.146;14.024;2024-01-06T01:28:58;20.85;;;12.80;;
71959;SDS011;59832;51.146;14.024;2024-01-06T01:31:24;22.08;;;13.30;;
71959;SDS011;59832;51.146;14.024;2024-01-06T01:33:51;24.55;;;13.13;;
71959;SDS011;59832;51.146;14.024;2024-01-06T01:36:18;20.87;;;11.97;;
71959;SDS011;59832;51.146;14.024;2024-01-06T01:38:44;22.15;;;12.35;;
71959;SDS011;59832;51.146;14.024;2024-01-06T01:41:11;24.50;;;13.33;;
71959;SDS011;59832;51.146;14.024;2024-01-06T01:43:37;24.25;;;14.35;;
71959;SDS011;59832;51.146;14.024;2024-01-06T01:46:04;22.60;;;13.02;;
71959;SDS011;59832;51.146;14.024;2024-01-06T01:48:31;24.33;;;13.20;;
71959;SDS011;59832;51.146;14.024;2024-01-06T01:51:01;29.42;;;13.75;;
71959;SDS011;59832;51.146;14.024;2024-01-06T01:53:27;21.73;;;14.13;;
71959;SDS011;59832;51.146;14.024;2024-01-06T01:55:54;20.88;;;12.40;;
71959;SDS011;59832;51.146;14.024;2024-01-06T01:58:20;21.50;;;13.02;;
71959;SDS011;59832;51.146;14.024;2024-01-06T02:00:47;23.23;;;13.03;;
71959;SDS011;59832;51.146;14.024;2024-01-06T02:03:14;28.27;;;13.75;;
71959;SDS011;59832;51.146;14.024;2024-01-06T02:05:41;24.27;;;12.32;;
71959;SDS011;59832;51.146;14.024;2024-01-06T02:08:07;24.23;;;12.65;;
71959;SDS011;59832;51.146;14.024;2024-01-06T02:10:34;20.20;;;13.45;;
71959;SDS011;59832;51.146;14.024;2024-01-06T02:13:07;23.15;;;13.27;;
71959;SDS011;59832;51.146;14.024;2024-01-06T02:15:37;27.83;;;13.20;;
71959;SDS011;59832;51.146;14.024;2024-01-06T02:18:04;23.77;;;12.60;;
71959;SDS011;59832;51.146;14.024;2024-01-06T02:20:32;25.02;;;14.95;;
71959;SDS011;59832;51.146;14.024;2024-01-06T02:22:58;30.27;;;14.00;;
71959;SDS011;59832;51.146;14.024;2024-01-06T02:25:27;27.88;;;14.73;;
71959;SDS011;59832;51.146;14.024;2024-01-06T02:27:53;27.27;;;14.95;;
71959;SDS011;59832;51.146;14.024;2024-01-06T02:30:20;28.25;;;14.40;;
71959;SDS011;59832;51.146;14.024;2024-01-06T02:32:46;22.90;;;14.27;;
71959;SDS011;59832;51.146;14.024;2024-01-06T02:35:13;29.58;;;14.43;;
71959;SDS011;59832;51.146;14.024;2024-01-06T02:37:39;25.00;;;14.13;;
71959;SDS011;59832;51.146;14.024;2024-01-06T02:40:06;24.92;;;15.57;;
71959;SDS011;59832;51.146;14.024;2024-01-06T02:42:33;26.80;;;13.95;;
71959;SDS011;59832;51.146;14.024;2024-01-06T02:44:59;26.93;;;14.63;;
71959;SDS011;59832;51.146;14.024;2024-01-06T02:47:26;29.13;;;14.93;;
71959;SDS011;59832;51.146;14.024;2024-01-06T02:49:52;28.17;;;14.80;;
71959;SDS011;59832;51.146;14.024;2024-01-06T02:52:19;27.92;;;14.25;;
71959;SDS011;59832;51.146;14.024;2024-01-06T02:54:45;27.65;;;14.68;;
71959;SDS011;59832;51.146;14.024;2024-01-06T02:57:12;29.33;;;14.65;;
71959;SDS011;59832;51.146;14.024;2024-01-06T02:59:39;28.10;;;15.27;;
71959;SDS011;59832;51.146;14.024;2024-01-06T03:02:06;26.27;;;14.98;;
71959;SDS011;59832;51.146;14.024;2024-01-06T03:04:33;29.50;;;15.23;;
71959;SDS011;59832;51.146;14.024;2024-01-06T03:06:59;27.50;;;14.63;;
71959;SDS011;59832;51.146;14.024;2024-01-06T03:09:26;32.03;;;14.95;;
71959;SDS011;59832;51.146;14.024;2024-01-06T03:11:52;25.58;;;14.90;;
71959;SDS011;59832;51.146;14.024;2024-01-06T03:14:19;27.25;;;15.13;;
71959;SDS011;59832;51.146;14.024;2024-01-06T03:16:45;21.25;;;13.98;;
71959;SDS011;59832;51.146;14.024;2024-01-06T03:19:12;33.83;;;14.93;;
71959;SDS011;59832;51.146;14.024;2024-01-06T03:21:39;29.73;;;14.48;;
71959;SDS011;59832;51.146;14.024;2024-01-06T03:24:07;28.95;;;15.38;;
71959;SDS011;59832;51.146;14.024;2024-01-06T03:29:00;26.98;;;14.15;;
71959;SDS011;59832;51.146;14.024;2024-01-06T03:31:29;27.02;;;13.93;;
71959;SDS011;59832;51.146;14.024;2024-01-06T03:33:56;27.17;;;13.80;;
71959;SDS011;59832;51.146;14.024;2024-01-06T03:36:22;25.43;;;13.97;;
71959;SDS011;59832;51.146;14.024;2024-01-06T03:38:49;30.27;;;15.03;;
71959;SDS011;59832;51.146;14.024;2024-01-06T03:41:15;26.13;;;14.23;;
71959;SDS011;59832;51.146;14.024;2024-01-06T03:43:42;27.83;;;14.02;;
71959;SDS011;59832;51.146;14.024;2024-01-06T03:46:08;24.85;;;13.65;;
71959;SDS011;59832;51.146;14.024;2024-01-06T03:48:35;22.73;;;14.57;;
71959;SDS011;59832;51.146;14.024;2024-01-06T03:51:02;23.93;;;12.53;;
71959;SDS011;59832;51.146;14.024;2024-01-06T03:53:29;23.27;;;13.20;;
71959;SDS011;59832;51.146;14.024;2024-01-06T03:55:55;26.95;;;14.43;;
71959;SDS011;59832;51.146;14.024;2024-01-06T03:58:21;28.15;;;15.25;;
71959;SDS011;59832;51.146;14.024;2024-01-06T04:00:48;27.02;;;14.43;;
71959;SDS011;59832;51.146;14.024;2024-01-06T04:03:14;24.90;;;14.53;;
71959;SDS011;59832;51.146;14.024;2024-01-06T04:05:41;26.85;;;15.23;;
71959;SDS011;59832;51.146;14.024;2024-01-06T04:08:07;28.80;;;15.57;;
71959;SDS011;59832;51.146;14.024;2024-01-06T04:10:34;23.83;;;14.48;;
71959;SDS011;59832;51.146;14.024;2024-01-06T04:13:01;26.58;;;15.15;;
71959;SDS011;59832;51.146;14.024;2024-01-06T04:15:27;26.15;;;15.75;;
71959;SDS011;59832;51.146;14.024;2024-01-06T04:17:54;25.75;;;15.02;;
71959;SDS011;59832;51.146;14.024;2024-01-06T04:20:21;28.75;;;15.63;;
71959;SDS011;59832;51.146;14.024;2024-01-06T04:22:47;31.13;;;16.00;;
71959;SDS011;59832;51.146;14.024;2024-01-06T04:25:14;33.10;;;15.48;;
71959;SDS011;59832;51.146;14.024;2024-01-06T04:27:40;25.17;;;14.70;;
71959;SDS011;59832;51.146;14.024;2024-01-06T04:30:07;23.88;;;14.85;;
71959;SDS011;59832;51.146;14.024;2024-01-06T04:32:34;27.90;;;15.43;;
71959;SDS011;59832;51.146;14.024;2024-01-06T04:35:00;27.35;;;15.10;;
71959;SDS011;59832;51.146;14.024;2024-01-06T04:37:27;26.20;;;14.32;;
71959;SDS011;59832;51.146;14.024;2024-01-06T04:39:53;25.95;;;14.65;;
71959;SDS011;59832;51.146;14.024;2024-01-06T04:42:20;24.55;;;14.40;;
71959;SDS011;59832;51.146;14.024;2024-01-06T04:44:51;21.83;;;13.88;;
71959;SDS011;59832;51.146;14.024;2024-01-06T04:47:18;26.90;;;15.13;;
71959;SDS011;59832;51.146;14.024;2024-01-06T04:49:44;26.08;;;14.63;;
71959;SDS011;59832;51.146;14.024;2024-01-06T04:52:11;26.95;;;14.75;;
71959;SDS011;59832;51.146;14.024;2024-01-06T04:54:38;31.95;;;15.00;;
71959;SDS011;59832;51.146;14.024;2024-01-06T04:57:04;30.55;;;14.85;;
71959;SDS011;59832;51.146;14.024;2024-01-06T04:59:31;25.38;;;14.57;;
71959;SDS011;59832;51.146;14.024;2024-01-06T05:01:57;29.77;;;15.13;;
71959;SDS011;59832;51.146;14.024;2024-01-06T05:04:24;25.30;;;14.98;;
71959;SDS011;59832;51.146;14.024;2024-01-06T05:06:51;23.13;;;14.03;;
71959;SDS011;59832;51.146;14.024;2024-01-06T05:09:18;25.75;;;14.38;;
71959;SDS011;59832;51.146;14.024;2024-01-06T05:11:45;31.63;;;14.88;;
71959;SDS011;59832;51.146;14.024;2024-01-06T05:14:11;27.25;;;15.05;;
71959;SDS011;59832;51.146;14.024;2024-01-06T05:16:38;26.83;;;13.88;;
71959;SDS011;59832;51.146;14.024;2024-01-06T05:19:04;28.10;;;14.45;;
71959;SDS011;59832;51.146;14.024;2024-01-06T05:21:31;27.80;;;13.93;;
71959;SDS011;59832;51.146;14.024;2024-01-06T05:23:58;26.88;;;14.45;;
71959;SDS011;59832;51.146;14.024;2024-01-06T05:26:25;23.40;;;13.32;;
71959;SDS011;59832;51.146;14.024;2024-01-06T05:28:52;23.20;;;14.27;;
71959;SDS011;59832;51.146;14.024;2024-01-06T05:31:18;28.02;;;15.40;;
71959;SDS011;59832;51.146;14.024;2024-01-06T05:33:45;24.25;;;13.65;;
71959;SDS011;59832;51.146;14.024;2024-01-06T05:36:12;24.73;;;14.60;;
71959;SDS011;59832;51.146;14.024;2024-01-06T05:38:38;24.70;;;14.10;;
71959;SDS011;59832;51.146;14.024;2024-01-06T05:41:04;24.10;;;13.43;;
71959;SDS011;59832;51.146;14.024;2024-01-06T05:43:31;29.27;;;14.48;;
71959;SDS011;59832;51.146;14.024;2024-01-06T05:45:57;25.63;;;14.10;;
71959;SDS011;59832;51.146;14.024;2024-01-06T05:48:24;24.48;;;13.85;;
71959;SDS011;59832;51.146;14.024;2024-01-06T05:50:51;23.00;;;14.27;;
71959;SDS011;59832;51.146;14.024;2024-01-06T05:53:17;27.95;;;14.68;;
71959;SDS011;59832;51.146;14.024;2024-01-06T05:55:44;26.95;;;14.35;;
71959;SDS011;59832;51.146;14.024;2024-01-06T05:58:11;27.38;;;15.00;;
71959;SDS011;59832;51.146;14.024;2024-01-06T06:00:37;26.05;;;14.57;;
71959;SDS011;59832;51.146;14.024;2024-01-06T06:03:05;23.13;;;14.40;;
71959;SDS011;59832;51.146;14.024;2024-01-06T06:05:31;27.38;;;14.77;;
71959;SDS011;59832;51.146;14.024;2024-01-06T06:07:58;27.40;;;15.27;;
71959;SDS011;59832;51.146;14.024;2024-01-06T06:10:24;27.88;;;15.52;;
71959;SDS011;59832;51.146;14.024;2024-01-06T06:12:56;28.75;;;14.30;;
71959;SDS011;59832;51.146;14.024;2024-01-06T06:15:23;32.88;;;15.45;;
71959;SDS011;59832;51.146;14.024;2024-01-06T06:17:49;30.80;;;15.55;;
71959;SDS011;59832;51.146;14.024;2024-01-06T06:20:16;23.83;;;14.13;;
71959;SDS011;59832;51.146;14.024;2024-01-06T06:22:42;25.67;;;14.00;;
71959;SDS011;59832;51.146;14.024;2024-01-06T06:25:09;27.20;;;13.93;;
71959;SDS011;59832;51.146;14.024;2024-01-06T06:27:36;28.13;;;14.63;;
71959;SDS011;59832;51.146;14.024;2024-01-06T06:30:03;26.40;;;14.43;;
71959;SDS011;59832;51.146;14.024;2024-01-06T06:32:30;25.83;;;14.27;;
71959;SDS011;59832;51.146;14.024;2024-01-06T06:34:56;28.10;;;14.20;;
71959;SDS011;59832;51.146;14.024;2024-01-06T06:37:23;25.38;;;13.95;;
71959;SDS011;59832;51.146;14.024;2024-01-06T06:39:49;25.23;;;15.13;;
71959;SDS011;59832;51.146;14.024;2024-01-06T06:42:16;27.27;;;15.43;;
71959;SDS011;59832;51.146;14.024;2024-01-06T06:44:43;28.38;;;15.30;;
71959;SDS011;59832;51.146;14.024;2024-01-06T06:47:09;33.78;;;15.52;;
71959;SDS011;59832;51.146;14.024;2024-01-06T06:49:36;30.47;;;16.07;;
71959;SDS011;59832;51.146;14.024;2024-01-06T06:52:02;30.65;;;16.10;;
71959;SDS011;59832;51.146;14.024;2024-01-06T06:54:30;35.10;;;19.05;;
71959;SDS011;59832;51.146;14.024;2024-01-06T06:56:57;30.42;;;16.48;;
71959;SDS011;59832;51.146;14.024;2024-01-06T06:59:23;28.27;;;15.32;;
71959;SDS011;59832;51.146;14.024;2024-01-06T07:01:50;31.35;;;16.83;;
71959;SDS011;59832;51.146;14.024;2024-01-06T07:04:17;29.42;;;16.27;;
71959;SDS011;59832;51.146;14.024;2024-01-06T07:06:43;32.22;;;20.52;;
71959;SDS011;59832;51.146;14.024;2024-01-06T07:09:10;28.52;;;15.20;;
71959;SDS011;59832;51.146;14.024;2024-01-06T07:11:36;30.52;;;16.08;;
71959;SDS011;59832;51.146;14.024;2024-01-06T07:14:02;26.08;;;15.90;;
71959;SDS011;59832;51.146;14.024;2024-01-06T07:16:29;25.88;;;15.15;;
71959;SDS011;59832;51.146;14.024;2024-01-06T07:18:55;30.75;;;15.90;;
71959;SDS011;59832;51.146;14.024;2024-01-06T07:21:22;29.70;;;15.63;;
71959;SDS011;59832;51.146;14.024;2024-01-06T07:23:49;26.05;;;15.25;;
71959;SDS011;59832;51.146;14.024;2024-01-06T07:26:16;27.67;;;15.15;;
71959;SDS011;59832;51.146;14.024;2024-01-06T07:28:42;29.73;;;16.50;;
71959;SDS011;59832;51.146;14.024;2024-01-06T07:31:08;26.50;;;16.10;;
71959;SDS011;59832;51.146;14.024;2024-01-06T07:33:35;25.17;;;15.17;;
71959;SDS011;59832;51.146;14.024;2024-01-06T07:36:02;28.73;;;16.40;;
71959;SDS011;59832;51.146;14.024;2024-01-06T07:38:29;30.50;;;16.42;;
71959;SDS011;59832;51.146;14.024;2024-01-06T07:40:57;25.75;;;15.00;;
71959;SDS011;59832;51.146;14.024;2024-01-06T07:43:23;28.75;;;15.80;;
71959;SDS011;59832;51.146;14.024;2024-01-06T07:45:50;25.67;;;15.30;;
71959;SDS011;59832;51.146;14.024;2024-01-06T07:48:17;30.17;;;16.38;;
71959;SDS011;59832;51.146;14.024;2024-01-06T07:50:43;26.80;;;16.17;;
71959;SDS011;59832;51.146;14.024;2024-01-06T07:53:10;32.07;;;18.33;;
71959;SDS011;59832;51.146;14.024;2024-01-06T07:55:36;27.15;;;16.63;;
71959;SDS011;59832;51.146;14.024;2024-01-06T07:58:04;35.17;;;19.20;;
71959;SDS011;59832;51.146;14.024;2024-01-06T08:00:30;35.13;;;21.23;;
71959;SDS011;59832;51.146;14.024;2024-01-06T08:02:57;38.38;;;22.27;;
71959;SDS011;59832;51.146;14.024;2024-01-06T08:05:23;36.72;;;20.92;;
71959;SDS011;59832;51.146;14.024;2024-01-06T08:07:50;38.58;;;20.92;;
71959;SDS011;59832;51.146;14.024;2024-01-06T08:10:17;34.28;;;19.55;;
71959;SDS011;59832;51.146;14.024;2024-01-06T08:12:44;41.58;;;24.17;;
71959;SDS011;59832;51.146;14.024;2024-01-06T08:15:11;53.70;;;32.63;;
71959;SDS011;59832;51.146;14.024;2024-01-06T08:17:38;42.78;;;25.80;;
71959;SDS011;59832;51.146;14.024;2024-01-06T08:20:07;40.15;;;24.02;;
71959;SDS011;59832;51.146;14.024;2024-01-06T08:22:34;46.88;;;27.50;;
71959;SDS011;59832;51.146;14.024;2024-01-06T08:25:01;41.38;;;24.27;;
71959;SDS011;59832;51.146;14.024;2024-01-06T08:27:28;41.85;;;27.50;;
71959;SDS011;59832;51.146;14.024;2024-01-06T08:29:55;53.67;;;33.75;;
71959;SDS011;59832;51.146;14.024;2024-01-06T08:32:22;37.95;;;22.77;;
71959;SDS011;59832;51.146;14.024;2024-01-06T08:34:49;36.78;;;22.55;;
71959;SDS011;59832;51.146;14.024;2024-01-06T08:37:15;40.47;;;22.57;;
71959;SDS011;59832;51.146;14.024;2024-01-06T08:39:42;39.78;;;23.88;;
71959;SDS011;59832;51.146;14.024;2024-01-06T08:42:08;39.85;;;23.30;;
71959;SDS011;59832;51.146;14.024;2024-01-06T08:44:35;41.95;;;23.25;;
71959;SDS011;59832;51.146;14.024;2024-01-06T08:47:01;38.38;;;23.48;;
71959;SDS011;59832;51.146;14.024;2024-01-06T08:49:29;46.42;;;28.13;;
71959;SDS011;59832;51.146;14.024;2024-01-06T08:51:55;59.83;;;31.00;;
71959;SDS011;59832;51.146;14.024;2024-01-06T08:54:22;41.78;;;23.48;;
71959;SDS011;59832;51.146;14.024;2024-01-06T08:56:49;39.37;;;22.97;;
71959;SDS011;59832;51.146;14.024;2024-01-06T08:59:15;36.25;;;20.88;;
71959;SDS011;59832;51.146;14.024;2024-01-06T09:01:42;41.22;;;22.27;;
71959;SDS011;59832;51.146;14.024;2024-01-06T09:04:10;33.90;;;20.67;;
71959;SDS011;59832;51.146;14.024;2024-01-06T09:06:38;37.58;;;21.67;;
71959;SDS011;59832;51.146;14.024;2024-01-06T09:09:05;35.05;;;21.35;;
71959;SDS011;59832;51.146;14.024;2024-01-06T09:11:32;40.13;;;22.67;;
71959;SDS011;59832;51.146;14.024;2024-01-06T09:13:58;44.08;;;23.42;;
71959;SDS011;59832;51.146;14.024;2024-01-06T09:16:25;37.58;;;22.00;;
71959;SDS011;59832;51.146;14.024;2024-01-06T09:18:52;40.35;;;22.90;;
71959;SDS011;59832;51.146;14.024;2024-01-06T09:21:18;35.27;;;21.60;;
71959;SDS011;59832;51.146;14.024;2024-01-06T09:23:45;38.95;;;22.05;;
71959;SDS011;59832;51.146;14.024;2024-01-06T09:26:11;34.08;;;20.40;;
71959;SDS011;59832;51.146;14.024;2024-01-06T09:28:38;37.08;;;21.95;;
71959;SDS011;59832;51.146;14.024;2024-01-06T09:31:05;32.10;;;20.15;;
71959;SDS011;59832;51.146;14.024;2024-01-06T09:33:32;37.95;;;21.60;;
71959;SDS011;59832;51.146;14.024;2024-01-06T09:36:00;36.28;;;22.15;;
71959;SDS011;59832;51.146;14.024;2024-01-06T09:38:27;40.92;;;24.88;;
71959;SDS011;59832;51.146;14.024;2024-01-06T09:40:54;42.63;;;22.55;;
71959;SDS011;59832;51.146;14.024;2024-01-06T09:43:21;39.75;;;22.10;;
71959;SDS011;59832;51.146;14.024;2024-01-06T09:45:49;36.73;;;23.90;;
71959;SDS011;59832;51.146;14.024;2024-01-06T09:48:25;34.45;;;20.20;;
71959;SDS011;59832;51.146;14.024;2024-01-06T09:50:56;33.22;;;19.85;;
71959;SDS011;59832;51.146;14.024;2024-01-06T09:55:54;37.67;;;20.15;;
71959;SDS011;59832;51.146;14.024;2024-01-06T09:58:21;32.42;;;19.08;;
71959;SDS011;59832;51.146;14.024;2024-01-06T10:00:48;46.30;;;23.02;;
71959;SDS011;59832;51.146;14.024;2024-01-06T10:03:15;47.92;;;26.08;;
71959;SDS011;59832;51.146;14.024;2024-01-06T10:05:42;39.38;;;22.58;;
71959;SDS011;59832;51.146;14.024;2024-01-06T10:08:09;32.30;;;17.20;;
71959;SDS011;59832;51.146;14.024;2024-01-06T10:10:35;28.55;;;16.45;;
71959;SDS011;59832;51.146;14.024;2024-01-06T10:13:01;29.25;;;16.33;;
71959;SDS011;59832;51.146;14.024;2024-01-06T10:15:28;27.40;;;16.03;;
71959;SDS011;59832;51.146;14.024;2024-01-06T10:17:54;27.30;;;15.77;;
71959;SDS011;59832;51.146;14.024;2024-01-06T10:20:21;29.47;;;19.03;;
71959;SDS011;59832;51.146;14.024;2024-01-06T10:22:48;31.70;;;19.23;;
71959;SDS011;59832;51.146;14.024;2024-01-06T10:25:14;33.38;;;17.42;;
71959;SDS011;59832;51.146;14.024;2024-01-06T10:27:41;30.23;;;19.08;;
71959;SDS011;59832;51.146;14.024;2024-01-06T10:30:08;29.00;;;17.25;;
71959;SDS011;59832;51.146;14.024;2024-01-06T10:32:36;29.92;;;17.30;;
71959;SDS011;59832;51.146;14.024;2024-01-06T10:35:04;61.35;;;27.60;;
71959;SDS011;59832;51.146;14.024;2024-01-06T10:37:33;49.47;;;24.38;;
71959;SDS011;59832;51.146;14.024;2024-01-06T10:40:09;29.30;;;18.98;;
71959;SDS011;59832;51.146;14.024;2024-01-06T10:42:38;26.73;;;16.25;;
71959;SDS011;59832;51.146;14.024;2024-01-06T10:45:06;29.13;;;19.30;;
71959;SDS011;59832;51.146;14.024;2024-01-06T10:47:35;108.13;;;50.92;;
71959;SDS011;59832;51.146;14.024;2024-01-06T10:50:03;23.75;;;16.27;;
71959;SDS011;59832;51.146;14.024;2024-01-06T10:54:58;57.15;;;32.05;;
71959;SDS011;59832;51.146;14.024;2024-01-06T10:57:24;25.27;;;15.60;;
71959;SDS011;59832;51.146;14.024;2024-01-06T10:59:51;22.30;;;13.93;;
71959;SDS011;59832;51.146;14.024;2024-01-06T11:04:45;245.25;;;89.00;;
71959;SDS011;59832;51.146;14.024;2024-01-06T11:07:13;49.05;;;23.52;;
71959;SDS011;59832;51.146;14.024;2024-01-06T11:09:49;73.18;;;34.58;;
71959;SDS011;59832;51.146;14.024;2024-01-06T11:12:24;48.35;;;25.98;;
71959;SDS011;59832;51.146;14.024;2024-01-06T11:14:52;100.72;;;55.05;;
71959;SDS011;59832;51.146;14.024;2024-01-06T11:20:22;54.08;;;28.67;;
71959;SDS011;59832;51.146;14.024;2024-01-06T11:22:50;103.22;;;45.33;;
71959;SDS011;59832;51.146;14.024;2024-01-06T11:25:20;120.65;;;59.38;;
71959;SDS011;59832;51.146;14.024;2024-01-06T11:27:49;87.57;;;39.65;;
71959;SDS011;59832;51.146;14.024;2024-01-06T11:30:20;36.08;;;19.75;;
71959;SDS011;59832;51.146;14.024;2024-01-06T11:32:56;33.03;;;18.30;;
71959;SDS011;59832;51.146;14.024;2024-01-06T11:35:26;295.67;;;117.70;;
71959;SDS011;59832;51.146;14.024;2024-01-06T11:37:58;48.30;;;24.98;;
71959;SDS011;59832;51.146;14.024;2024-01-06T11:40:31;34.85;;;18.35;;
71959;SDS011;59832;51.146;14.024;2024-01-06T11:45:32;62.85;;;32.90;;
71959;SDS011;59832;51.146;14.024;2024-01-06T11:48:01;97.93;;;47.58;;
71959;SDS011;59832;51.146;14.024;2024-01-06T11:50:34;114.05;;;56.78;;
71959;SDS011;59832;51.146;14.024;2024-01-06T11:53:03;64.95;;;29.70;;
71959;SDS011;59832;51.146;14.024;2024-01-06T11:55:30;88.45;;;37.63;;
71959;SDS011;59832;51.146;14.024;2024-01-06T11:58:01;163.73;;;62.03;;
71959;SDS011;59832;51.146;14.024;2024-01-06T12:00:33;136.90;;;49.15;;
71959;SDS011;59832;51.146;14.024;2024-01-06T12:03:03;47.05;;;22.77;;
71959;SDS011;59832;51.146;14.024;2024-01-06T12:05:33;43.53;;;21.17;;
71959;SDS011;59832;51.146;14.024;2024-01-06T12:08:01;141.07;;;52.75;;
71959;SDS011;59832;51.146;14.024;2024-01-06T12:10:31;111.90;;;43.60;;
71959;SDS011;59832;51.146;14.024;2024-01-06T12:15:27;58.45;;;26.27;;
71959;SDS011;59832;51.146;14.024;2024-01-06T12:17:55;49.78;;;23.08;;
71959;SDS011;59832;51.146;14.024;2024-01-06T12:20:23;57.20;;;26.38;;
71959;SDS011;59832;51.146;14.024;2024-01-06T12:22:53;60.42;;;29.30;;
71959;SDS011;59832;51.146;14.024;2024-01-06T12:25:21;68.53;;;31.80;;
71959;SDS011;59832;51.146;14.024;2024-01-06T12:27:48;51.55;;;24.38;;
71959;SDS011;59832;51.146;14.024;2024-01-06T12:30:17;51.40;;;24.65;;
71959;SDS011;59832;51.146;14.024;2024-01-06T12:32:46;59.63;;;30.15;;
71959;SDS011;59832;51.146;14.024;2024-01-06T12:35:15;49.97;;;23.77;;
71959;SDS011;59832;51.146;14.024;2024-01-06T12:37:42;61.75;;;29.13;;
71959;SDS011;59832;51.146;14.024;2024-01-06T12:40:09;58.88;;;25.20;;
71959;SDS011;59832;51.146;14.024;2024-01-06T12:42:38;55.83;;;25.73;;
71959;SDS011;59832;51.146;14.024;2024-01-06T12:45:06;68.57;;;25.63;;
71959;SDS011;59832;51.146;14.024;2024-01-06T12:47:33;60.53;;;24.05;;
71959;SDS011;59832;51.146;14.024;2024-01-06T12:52:26;60.43;;;26.90;;
71959;SDS011;59832;51.146;14.024;2024-01-06T12:54:53;72.15;;;26.95;;
71959;SDS011;59832;51.146;14.024;2024-01-06T12:57:19;62.65;;;27.58;;
71959;SDS011;59832;51.146;14.024;2024-01-06T12:59:46;70.32;;;28.90;;
71959;SDS011;59832;51.146;14.024;2024-01-06T13:02:13;61.05;;;24.92;;
71959;SDS011;59832;51.146;14.024;2024-01-06T13:04:39;70.15;;;25.75;;
71959;SDS011;59832;51.146;14.024;2024-01-06T13:07:06;68.20;;;26.43;;
71959;SDS011;59832;51.146;14.024;2024-01-06T13:09:33;69.73;;;26.43;;
71959;SDS011;59832;51.146;14.024;2024-01-06T13:11:59;70.40;;;26.37;;
71959;SDS011;59832;51.146;14.024;2024-01-06T13:14:27;71.63;;;27.38;;
71959;SDS011;59832;51.146;14.024;2024-01-06T13:16:55;75.40;;;28.05;;
71959;SDS011;59832;51.146;14.024;2024-01-06T13:19:22;77.55;;;29.23;;
71959;SDS011;59832;51.146;14.024;2024-01-06T13:21:49;80.10;;;32.65;;
71959;SDS011;59832;51.146;14.024;2024-01-06T13:24:16;82.90;;;31.00;;
71959;SDS011;59832;51.146;14.024;2024-01-06T13:26:43;83.37;;;31.47;;
71959;SDS011;59832;51.146;14.024;2024-01-06T13:29:09;85.05;;;33.22;;
71959;SDS011;59832;51.146;14.024;2024-01-06T13:31:36;129.87;;;32.87;;
71959;SDS011;59832;51.146;14.024;2024-01-06T13:34:03;91.65;;;32.45;;
71959;SDS011;59832;51.146;14.024;2024-01-06T13:36:30;102.25;;;35.50;;
71959;SDS011;59832;51.146;14.024;2024-01-06T13:38:57;112.07;;;35.03;;
71959;SDS011;59832;51.146;14.024;2024-01-06T13:41:26;107.10;;;35.45;;
71959;SDS011;59832;51.146;14.024;2024-01-06T13:43:53;131.70;;;37.45;;
71959;SDS011;59832;51.146;14.024;2024-01-06T13:46:20;106.70;;;33.88;;
71959;SDS011;59832;51.146;14.024;2024-01-06T13:48:47;117.28;;;35.63;;
71959;SDS011;59832;51.146;14.024;2024-01-06T13:51:14;125.55;;;37.95;;
71959;SDS011;59832;51.146;14.024;2024-01-06T13:53:41;112.95;;;38.10;;
71959;SDS011;59832;51.146;14.024;2024-01-06T13:56:07;117.47;;;41.40;;
71959;SDS011;59832;51.146;14.024;2024-01-06T13:58:34;108.35;;;39.08;;
71959;SDS011;59832;51.146;14.024;2024-01-06T14:01:02;104.35;;;36.50;;
71959;SDS011;59832;51.146;14.024;2024-01-06T14:03:29;121.68;;;38.67;;
71959;SDS011;59832;51.146;14.024;2024-01-06T14:05:56;131.87;;;47.80;;
71959;SDS011;59832;51.146;14.024;2024-01-06T14:08:22;108.47;;;39.22;;
71959;SDS011;59832;51.146;14.024;2024-01-06T14:10:50;159.20;;;44.72;;
71959;SDS011;59832;51.146;14.024;2024-01-06T14:13:16;128.20;;;48.35;;
71959;SDS011;59832;51.146;14.024;2024-01-06T14:15:43;167.60;;;66.55;;
71959;SDS011;59832;51.146;14.024;2024-01-06T14:18:10;120.40;;;40.78;;
71959;SDS011;59832;51.146;14.024;2024-01-06T14:20:38;128.15;;;41.47;;
71959;SDS011;59832;51.146;14.024;2024-01-06T14:23:06;128.52;;;43.08;;
71959;SDS011;59832;51.146;14.024;2024-01-06T14:25:33;141.70;;;44.85;;
71959;SDS011;59832;51.146;14.024;2024-01-06T14:27:59;137.85;;;44.13;;